sensor_id;sensor_type;location;lat;lon;timestamp;P1;durP1;ratioP1;P2;durP2;ratioP2
21769;SDS011;11046;49.558;8.674;2023-02-18T00:02:34;8.80;;;5.37;;
21769;SDS011;11046;49.558;8.674;2023-02-18T00:05:35;10.33;;;5.23;;
21769;SDS011;11046;49.558;8.674;2023-02-18T00:08:35;9.17;;;5.73;;
21769;SDS011;11046;49.558;8.674;2023-02-18T00:11:36;8.40;;;5.73;;
21769;SDS011;11046;49.558;8.674;2023-02-18T00:14:37;9.60;;;5.67;;
21769;SDS011;11046;49.558;8.674;2023-02-18T00:17:38;10.53;;;5.73;;
21769;SDS011;11046;49.558;8.674;2023-02-18T00:20:39;7.43;;;5.60;;
21769;SDS011;11046;49.558;8.674;2023-02-18T00:23:39;10.83;;;6.03;;
21769;SDS011;11046;49.558;8.674;2023-02-18T00:26:40;8.87;;;6.30;;
21769;SDS011;11046;49.558;8.674;2023-02-18T00:29:41;9.07;;;6.33;;
21769;SDS011;11046;49.558;8.674;2023-02-18T00:32:42;10.17;;;6.03;;
21769;SDS011;11046;49.558;8.674;2023-02-18T00:35:42;10.87;;;6.20;;
21769;SDS011;11046;49.558;8.674;2023-02-18T00:38:44;8.37;;;6.10;;
21769;SDS011;11046;49.558;8.674;2023-02-18T00:41:49;9.27;;;5.97;;
21769;SDS011;11046;49.558;8.674;2023-02-18T00:44:49;11.43;;;6.10;;
21769;SDS011;11046;49.558;8.674;2023-02-18T00:47:50;10.13;;;6.33;;
21769;SDS011;11046;49.558;8.674;2023-02-18T00:50:51;10.73;;;7.13;;
21769;SDS011;11046;49.558;8.674;2023-02-18T00:53:51;11.07;;;7.47;;
21769;SDS011;11046;49.558;8.674;2023-02-18T00:56:52;10.53;;;6.97;;
21769;SDS011;11046;49.558;8.674;2023-02-18T00:59:53;12.83;;;7.47;;
21769;SDS011;11046;49.558;8.674;2023-02-18T01:02:53;15.07;;;8.40;;
21769;SDS011;11046;49.558;8.674;2023-02-18T01:05:55;13.07;;;7.63;;
21769;SDS011;11046;49.558;8.674;2023-02-18T01:08:56;12.77;;;7.53;;
21769;SDS011;11046;49.558;8.674;2023-02-18T01:11:57;12.37;;;7.80;;
21769;SDS011;11046;49.558;8.674;2023-02-18T01:14:57;11.13;;;7.63;;
21769;SDS011;11046;49.558;8.674;2023-02-18T01:17:58;13.80;;;7.30;;
21769;SDS011;11046;49.558;8.674;2023-02-18T01:20:59;13.30;;;7.43;;
21769;SDS011;11046;49.558;8.674;2023-02-18T01:23:59;12.03;;;7.13;;
21769;SDS011;11046;49.558;8.674;2023-02-18T01:27:00;12.67;;;7.63;;
21769;SDS011;11046;49.558;8.674;2023-02-18T01:30:01;10.33;;;6.73;;
21769;SDS011;11046;49.558;8.674;2023-02-18T01:33:06;8.57;;;6.27;;
21769;SDS011;11046;49.558;8.674;2023-02-18T01:36:07;11.43;;;6.80;;
21769;SDS011;11046;49.558;8.674;2023-02-18T01:39:09;9.57;;;6.43;;
21769;SDS011;11046;49.558;8.674;2023-02-18T01:42:19;9.90;;;5.97;;
21769;SDS011;11046;49.558;8.674;2023-02-18T01:49:02;9.70;;;6.30;;
21769;SDS011;11046;49.558;8.674;2023-02-18T01:52:07;9.80;;;5.60;;
21769;SDS011;11046;49.558;8.674;2023-02-18T01:55:12;10.40;;;5.73;;
21769;SDS011;11046;49.558;8.674;2023-02-18T01:58:13;8.83;;;5.30;;
21769;SDS011;11046;49.558;8.674;2023-02-18T02:01:14;9.53;;;5.37;;
21769;SDS011;11046;49.558;8.674;2023-02-18T02:04:15;8.77;;;5.47;;
21769;SDS011;11046;49.558;8.674;2023-02-18T02:07:16;10.63;;;5.67;;
21769;SDS011;11046;49.558;8.674;2023-02-18T02:10:18;9.60;;;5.20;;
21769;SDS011;11046;49.558;8.674;2023-02-18T02:13:23;8.90;;;5.40;;
21769;SDS011;11046;49.558;8.674;2023-02-18T02:49:22;7.33;;;4.83;;
21769;SDS011;11046;49.558;8.674;2023-02-18T02:52:49;9.53;;;5.73;;
21769;SDS011;11046;49.558;8.674;2023-02-18T02:55:55;8.03;;;5.30;;
21769;SDS011;11046;49.558;8.674;2023-02-18T02:58:58;7.37;;;4.90;;
21769;SDS011;11046;49.558;8.674;2023-02-18T03:12:08;6.00;;;4.20;;
21769;SDS011;11046;49.558;8.674;2023-02-18T03:22:03;7.97;;;4.73;;
21769;SDS011;11046;49.558;8.674;2023-02-18T03:25:20;6.77;;;4.13;;
21769;SDS011;11046;49.558;8.674;2023-02-18T03:28:23;5.83;;;3.93;;
21769;SDS011;11046;49.558;8.674;2023-02-18T03:31:27;5.97;;;3.60;;
21769;SDS011;11046;49.558;8.674;2023-02-18T03:34:31;6.43;;;3.83;;
21769;SDS011;11046;49.558;8.674;2023-02-18T03:37:38;5.40;;;3.67;;
21769;SDS011;11046;49.558;8.674;2023-02-18T03:40:44;7.27;;;4.00;;
21769;SDS011;11046;49.558;8.674;2023-02-18T03:43:49;5.43;;;3.37;;
21769;SDS011;11046;49.558;8.674;2023-02-18T03:46:50;6.17;;;4.33;;
21769;SDS011;11046;49.558;8.674;2023-02-18T03:49:52;6.53;;;4.13;;
21769;SDS011;11046;49.558;8.674;2023-02-18T03:52:53;6.20;;;3.63;;
21769;SDS011;11046;49.558;8.674;2023-02-18T03:55:54;4.60;;;3.47;;
21769;SDS011;11046;49.558;8.674;2023-02-18T03:58:54;5.50;;;3.70;;
21769;SDS011;11046;49.558;8.674;2023-02-18T04:01:55;5.20;;;3.60;;
21769;SDS011;11046;49.558;8.674;2023-02-18T04:04:56;6.63;;;4.17;;
21769;SDS011;11046;49.558;8.674;2023-02-18T04:07:57;6.23;;;4.13;;
21769;SDS011;11046;49.558;8.674;2023-02-18T04:10:57;5.90;;;4.23;;
21769;SDS011;11046;49.558;8.674;2023-02-18T04:13:58;7.00;;;4.87;;
21769;SDS011;11046;49.558;8.674;2023-02-18T04:16:59;6.70;;;4.60;;
21769;SDS011;11046;49.558;8.674;2023-02-18T04:20:00;7.73;;;4.60;;
21769;SDS011;11046;49.558;8.674;2023-02-18T04:23:01;7.33;;;4.70;;
21769;SDS011;11046;49.558;8.674;2023-02-18T04:26:02;9.03;;;5.53;;
21769;SDS011;11046;49.558;8.674;2023-02-18T04:29:03;9.90;;;5.80;;
21769;SDS011;11046;49.558;8.674;2023-02-18T04:32:04;8.30;;;5.43;;
21769;SDS011;11046;49.558;8.674;2023-02-18T04:35:05;9.97;;;5.70;;
21769;SDS011;11046;49.558;8.674;2023-02-18T04:38:06;9.07;;;6.10;;
21769;SDS011;11046;49.558;8.674;2023-02-18T04:41:07;8.30;;;5.57;;
21769;SDS011;11046;49.558;8.674;2023-02-18T04:44:08;11.27;;;6.27;;
21769;SDS011;11046;49.558;8.674;2023-02-18T04:47:09;11.57;;;5.93;;
21769;SDS011;11046;49.558;8.674;2023-02-18T04:50:09;7.83;;;5.83;;
21769;SDS011;11046;49.558;8.674;2023-02-18T04:53:10;11.27;;;5.80;;
21769;SDS011;11046;49.558;8.674;2023-02-18T04:56:11;9.57;;;6.30;;
21769;SDS011;11046;49.558;8.674;2023-02-18T04:59:12;11.13;;;6.97;;
21769;SDS011;11046;49.558;8.674;2023-02-18T05:02:14;9.30;;;6.57;;
21769;SDS011;11046;49.558;8.674;2023-02-18T05:05:14;9.87;;;6.50;;
21769;SDS011;11046;49.558;8.674;2023-02-18T05:08:15;11.90;;;7.20;;
21769;SDS011;11046;49.558;8.674;2023-02-18T05:11:16;11.40;;;7.60;;
21769;SDS011;11046;49.558;8.674;2023-02-18T05:14:16;13.67;;;7.07;;
21769;SDS011;11046;49.558;8.674;2023-02-18T05:17:17;9.57;;;6.90;;
21769;SDS011;11046;49.558;8.674;2023-02-18T05:20:18;9.17;;;6.20;;
21769;SDS011;11046;49.558;8.674;2023-02-18T05:23:18;8.77;;;6.43;;
21769;SDS011;11046;49.558;8.674;2023-02-18T05:26:20;11.73;;;6.60;;
21769;SDS011;11046;49.558;8.674;2023-02-18T05:29:21;12.57;;;7.23;;
21769;SDS011;11046;49.558;8.674;2023-02-18T05:32:21;10.43;;;7.40;;
21769;SDS011;11046;49.558;8.674;2023-02-18T05:35:22;10.33;;;7.47;;
21769;SDS011;11046;49.558;8.674;2023-02-18T05:38:23;10.77;;;7.10;;
21769;SDS011;11046;49.558;8.674;2023-02-18T05:41:23;12.47;;;7.67;;
21769;SDS011;11046;49.558;8.674;2023-02-18T05:44:24;13.60;;;8.50;;
21769;SDS011;11046;49.558;8.674;2023-02-18T05:47:31;13.93;;;7.97;;
21769;SDS011;11046;49.558;8.674;2023-02-18T05:50:32;13.83;;;7.50;;
21769;SDS011;11046;49.558;8.674;2023-02-18T05:53:32;11.77;;;7.63;;
21769;SDS011;11046;49.558;8.674;2023-02-18T05:56:33;10.47;;;7.20;;
21769;SDS011;11046;49.558;8.674;2023-02-18T05:59:34;12.60;;;7.70;;
21769;SDS011;11046;49.558;8.674;2023-02-18T06:02:35;10.43;;;7.50;;
21769;SDS011;11046;49.558;8.674;2023-02-18T06:05:36;11.93;;;6.97;;
21769;SDS011;11046;49.558;8.674;2023-02-18T06:08:36;12.17;;;7.90;;
21769;SDS011;11046;49.558;8.674;2023-02-18T06:11:37;11.57;;;7.60;;
21769;SDS011;11046;49.558;8.674;2023-02-18T06:14:38;12.40;;;7.87;;
21769;SDS011;11046;49.558;8.674;2023-02-18T06:17:41;11.33;;;7.37;;
21769;SDS011;11046;49.558;8.674;2023-02-18T06:20:41;11.73;;;8.27;;
21769;SDS011;11046;49.558;8.674;2023-02-18T06:23:48;11.80;;;7.83;;
21769;SDS011;11046;49.558;8.674;2023-02-18T06:26:49;12.17;;;8.00;;
21769;SDS011;11046;49.558;8.674;2023-02-18T06:29:49;16.17;;;8.20;;
21769;SDS011;11046;49.558;8.674;2023-02-18T06:32:50;12.73;;;7.93;;
21769;SDS011;11046;49.558;8.674;2023-02-18T06:35:51;10.77;;;7.60;;
21769;SDS011;11046;49.558;8.674;2023-02-18T06:38:57;13.57;;;8.03;;
21769;SDS011;11046;49.558;8.674;2023-02-18T06:41:58;12.63;;;7.77;;
21769;SDS011;11046;49.558;8.674;2023-02-18T06:44:59;12.73;;;7.70;;
21769;SDS011;11046;49.558;8.674;2023-02-18T06:48:00;11.20;;;7.47;;
21769;SDS011;11046;49.558;8.674;2023-02-18T06:51:00;12.37;;;8.10;;
21769;SDS011;11046;49.558;8.674;2023-02-18T06:54:01;11.93;;;8.30;;
21769;SDS011;11046;49.558;8.674;2023-02-18T06:57:02;12.23;;;7.60;;
21769;SDS011;11046;49.558;8.674;2023-02-18T07:00:03;15.37;;;7.83;;
21769;SDS011;11046;49.558;8.674;2023-02-18T07:03:05;13.47;;;8.50;;
21769;SDS011;11046;49.558;8.674;2023-02-18T07:06:06;13.47;;;8.57;;
21769;SDS011;11046;49.558;8.674;2023-02-18T07:09:07;13.30;;;8.73;;
21769;SDS011;11046;49.558;8.674;2023-02-18T07:12:08;14.10;;;9.00;;
21769;SDS011;11046;49.558;8.674;2023-02-18T07:15:08;15.10;;;8.30;;
21769;SDS011;11046;49.558;8.674;2023-02-18T07:18:09;17.60;;;8.77;;
21769;SDS011;11046;49.558;8.674;2023-02-18T07:21:10;15.00;;;8.00;;
21769;SDS011;11046;49.558;8.674;2023-02-18T07:24:10;13.50;;;8.37;;
21769;SDS011;11046;49.558;8.674;2023-02-18T07:27:11;15.50;;;8.60;;
21769;SDS011;11046;49.558;8.674;2023-02-18T07:30:12;14.93;;;8.37;;
21769;SDS011;11046;49.558;8.674;2023-02-18T07:33:12;12.17;;;7.67;;
21769;SDS011;11046;49.558;8.674;2023-02-18T07:36:19;15.67;;;8.10;;
21769;SDS011;11046;49.558;8.674;2023-02-18T07:39:20;14.73;;;8.57;;
21769;SDS011;11046;49.558;8.674;2023-02-18T07:42:20;15.57;;;9.53;;
21769;SDS011;11046;49.558;8.674;2023-02-18T07:45:23;15.87;;;9.40;;
21769;SDS011;11046;49.558;8.674;2023-02-18T07:48:24;17.20;;;8.97;;
21769;SDS011;11046;49.558;8.674;2023-02-18T07:51:24;15.20;;;9.00;;
21769;SDS011;11046;49.558;8.674;2023-02-18T07:54:25;15.57;;;9.47;;
21769;SDS011;11046;49.558;8.674;2023-02-18T07:57:26;14.17;;;9.07;;
21769;SDS011;11046;49.558;8.674;2023-02-18T08:00:27;14.10;;;8.30;;
21769;SDS011;11046;49.558;8.674;2023-02-18T08:03:28;15.13;;;9.70;;
21769;SDS011;11046;49.558;8.674;2023-02-18T08:06:32;14.73;;;9.63;;
21769;SDS011;11046;49.558;8.674;2023-02-18T08:09:34;12.67;;;7.83;;
21769;SDS011;11046;49.558;8.674;2023-02-18T08:12:35;10.87;;;7.27;;
21769;SDS011;11046;49.558;8.674;2023-02-18T08:15:35;10.70;;;7.53;;
21769;SDS011;11046;49.558;8.674;2023-02-18T08:18:36;11.90;;;7.30;;
21769;SDS011;11046;49.558;8.674;2023-02-18T08:21:37;14.13;;;7.53;;
21769;SDS011;11046;49.558;8.674;2023-02-18T08:24:37;13.40;;;7.63;;
21769;SDS011;11046;49.558;8.674;2023-02-18T08:27:38;21.80;;;8.20;;
21769;SDS011;11046;49.558;8.674;2023-02-18T08:30:46;12.57;;;8.07;;
21769;SDS011;11046;49.558;8.674;2023-02-18T08:33:49;11.10;;;7.63;;
21769;SDS011;11046;49.558;8.674;2023-02-18T08:36:51;12.03;;;7.70;;
21769;SDS011;11046;49.558;8.674;2023-02-18T08:39:52;18.17;;;8.23;;
21769;SDS011;11046;49.558;8.674;2023-02-18T08:42:53;13.17;;;7.87;;
21769;SDS011;11046;49.558;8.674;2023-02-18T08:45:56;16.60;;;8.70;;
21769;SDS011;11046;49.558;8.674;2023-02-18T08:48:58;22.37;;;9.40;;
21769;SDS011;11046;49.558;8.674;2023-02-18T08:52:02;12.53;;;7.90;;
21769;SDS011;11046;49.558;8.674;2023-02-18T08:55:06;16.50;;;7.70;;
21769;SDS011;11046;49.558;8.674;2023-02-18T08:58:09;22.37;;;8.10;;
21769;SDS011;11046;49.558;8.674;2023-02-18T09:01:12;16.47;;;7.57;;
21769;SDS011;11046;49.558;8.674;2023-02-18T09:04:14;12.47;;;7.10;;
21769;SDS011;11046;49.558;8.674;2023-02-18T09:07:17;10.37;;;7.50;;
21769;SDS011;11046;49.558;8.674;2023-02-18T09:10:22;11.27;;;6.97;;
21769;SDS011;11046;49.558;8.674;2023-02-18T09:13:28;10.87;;;6.70;;
21769;SDS011;11046;49.558;8.674;2023-02-18T09:16:41;10.27;;;6.63;;
21769;SDS011;11046;49.558;8.674;2023-02-18T09:19:52;13.10;;;7.00;;
21769;SDS011;11046;49.558;8.674;2023-02-18T09:23:07;10.47;;;7.20;;
21769;SDS011;11046;49.558;8.674;2023-02-18T09:26:25;13.77;;;7.30;;
21769;SDS011;11046;49.558;8.674;2023-02-18T09:29:32;11.77;;;7.87;;
21769;SDS011;11046;49.558;8.674;2023-02-18T09:32:43;13.83;;;8.10;;
21769;SDS011;11046;49.558;8.674;2023-02-18T09:35:56;18.63;;;8.87;;
21769;SDS011;11046;49.558;8.674;2023-02-18T09:39:11;12.50;;;8.70;;
21769;SDS011;11046;49.558;8.674;2023-02-18T09:42:21;17.97;;;10.43;;
21769;SDS011;11046;49.558;8.674;2023-02-18T09:45:34;22.00;;;10.90;;
21769;SDS011;11046;49.558;8.674;2023-02-18T09:48:49;26.10;;;15.20;;
21769;SDS011;11046;49.558;8.674;2023-02-18T09:55:44;16.67;;;10.20;;
21769;SDS011;11046;49.558;8.674;2023-02-18T09:59:16;18.47;;;12.10;;
21769;SDS011;11046;49.558;8.674;2023-02-18T10:02:33;15.17;;;9.93;;
21769;SDS011;11046;49.558;8.674;2023-02-18T10:12:28;15.07;;;9.00;;
21769;SDS011;11046;49.558;8.674;2023-02-18T10:15:40;17.17;;;9.50;;
21769;SDS011;11046;49.558;8.674;2023-02-18T10:18:59;15.10;;;9.47;;
21769;SDS011;11046;49.558;8.674;2023-02-18T10:22:12;14.90;;;9.80;;
21769;SDS011;11046;49.558;8.674;2023-02-18T10:25:31;13.00;;;9.10;;
21769;SDS011;11046;49.558;8.674;2023-02-18T10:28:50;18.67;;;9.03;;
21769;SDS011;11046;49.558;8.674;2023-02-18T10:31:55;12.47;;;9.20;;
21769;SDS011;11046;49.558;8.674;2023-02-18T10:35:47;13.90;;;8.90;;
21769;SDS011;11046;49.558;8.674;2023-02-18T10:38:51;10.83;;;7.87;;
21769;SDS011;11046;49.558;8.674;2023-02-18T10:52:43;12.57;;;8.43;;
21769;SDS011;11046;49.558;8.674;2023-02-18T10:55:57;13.33;;;8.70;;
21769;SDS011;11046;49.558;8.674;2023-02-18T10:59:10;13.30;;;8.80;;
21769;SDS011;11046;49.558;8.674;2023-02-18T11:02:26;12.53;;;8.90;;
21769;SDS011;11046;49.558;8.674;2023-02-18T11:05:35;14.27;;;9.43;;
21769;SDS011;11046;49.558;8.674;2023-02-18T11:08:46;13.70;;;9.87;;
21769;SDS011;11046;49.558;8.674;2023-02-18T11:11:58;14.30;;;9.87;;
21769;SDS011;11046;49.558;8.674;2023-02-18T11:15:21;14.65;;;10.32;;
21769;SDS011;11046;49.558;8.674;2023-02-18T11:18:39;19.17;;;10.63;;
21769;SDS011;11046;49.558;8.674;2023-02-18T11:22:18;15.97;;;10.80;;
21769;SDS011;11046;49.558;8.674;2023-02-18T11:25:30;16.10;;;10.93;;
21769;SDS011;11046;49.558;8.674;2023-02-18T11:28:55;16.67;;;11.07;;
21769;SDS011;11046;49.558;8.674;2023-02-18T11:32:09;15.93;;;10.70;;
21769;SDS011;11046;49.558;8.674;2023-02-18T11:35:23;14.88;;;10.50;;
21769;SDS011;11046;49.558;8.674;2023-02-18T11:38:42;15.10;;;9.43;;
21769;SDS011;11046;49.558;8.674;2023-02-18T11:42:22;12.57;;;8.13;;
21769;SDS011;11046;49.558;8.674;2023-02-18T11:46:13;13.00;;;8.27;;
21769;SDS011;11046;49.558;8.674;2023-02-18T11:49:26;12.80;;;7.80;;
21769;SDS011;11046;49.558;8.674;2023-02-18T11:52:55;11.13;;;7.63;;
21769;SDS011;11046;49.558;8.674;2023-02-18T11:56:15;11.82;;;8.35;;
21769;SDS011;11046;49.558;8.674;2023-02-18T11:59:37;11.02;;;7.80;;
21769;SDS011;11046;49.558;8.674;2023-02-18T12:02:50;14.20;;;8.13;;
21769;SDS011;11046;49.558;8.674;2023-02-18T12:06:10;10.63;;;6.95;;
21769;SDS011;11046;49.558;8.674;2023-02-18T12:10:18;14.03;;;7.17;;
21769;SDS011;11046;49.558;8.674;2023-02-18T12:21:07;12.52;;;7.18;;
21769;SDS011;11046;49.558;8.674;2023-02-18T12:32:29;9.13;;;6.95;;
21769;SDS011;11046;49.558;8.674;2023-02-18T12:36:56;11.27;;;6.78;;
21769;SDS011;11046;49.558;8.674;2023-02-18T12:59:13;12.57;;;7.13;;
21769;SDS011;11046;49.558;8.674;2023-02-18T13:06:19;12.10;;;7.00;;
21769;SDS011;11046;49.558;8.674;2023-02-18T13:13:18;8.70;;;6.80;;
21769;SDS011;11046;49.558;8.674;2023-02-18T13:16:58;7.10;;;5.07;;
21769;SDS011;11046;49.558;8.674;2023-02-18T13:23:58;8.90;;;5.40;;
21769;SDS011;11046;49.558;8.674;2023-02-18T13:27:44;8.17;;;5.07;;
21769;SDS011;11046;49.558;8.674;2023-02-18T13:45:42;7.50;;;5.03;;
21769;SDS011;11046;49.558;8.674;2023-02-18T13:49:19;9.88;;;5.55;;
21769;SDS011;11046;49.558;8.674;2023-02-18T13:52:40;8.00;;;4.93;;
21769;SDS011;11046;49.558;8.674;2023-02-18T14:00:13;5.38;;;4.38;;
21769;SDS011;11046;49.558;8.674;2023-02-18T14:03:33;5.97;;;4.38;;
21769;SDS011;11046;49.558;8.674;2023-02-18T14:10:28;5.50;;;4.50;;
21769;SDS011;11046;49.558;8.674;2023-02-18T14:29:31;7.57;;;5.28;;
21769;SDS011;11046;49.558;8.674;2023-02-18T14:32:33;9.07;;;5.30;;
21769;SDS011;11046;49.558;8.674;2023-02-18T14:35:42;6.82;;;4.90;;
21769;SDS011;11046;49.558;8.674;2023-02-18T14:43:01;8.88;;;5.00;;
21769;SDS011;11046;49.558;8.674;2023-02-18T14:52:37;8.63;;;5.10;;
21769;SDS011;11046;49.558;8.674;2023-02-18T14:55:50;13.90;;;6.17;;
21769;SDS011;11046;49.558;8.674;2023-02-18T14:59:05;7.53;;;5.00;;
21769;SDS011;11046;49.558;8.674;2023-02-18T15:02:26;10.50;;;5.23;;
21769;SDS011;11046;49.558;8.674;2023-02-18T15:05:32;7.57;;;4.47;;
21769;SDS011;11046;49.558;8.674;2023-02-18T15:08:37;10.27;;;4.80;;
21769;SDS011;11046;49.558;8.674;2023-02-18T15:11:44;7.47;;;4.47;;
21769;SDS011;11046;49.558;8.674;2023-02-18T15:14:51;8.23;;;4.60;;
21769;SDS011;11046;49.558;8.674;2023-02-18T15:17:56;9.48;;;4.85;;
21769;SDS011;11046;49.558;8.674;2023-02-18T15:21:01;9.37;;;5.17;;
21769;SDS011;11046;49.558;8.674;2023-02-18T15:24:05;14.00;;;4.57;;
21769;SDS011;11046;49.558;8.674;2023-02-18T15:27:26;6.90;;;4.23;;
21769;SDS011;11046;49.558;8.674;2023-02-18T15:30:29;11.70;;;4.50;;
21769;SDS011;11046;49.558;8.674;2023-02-18T15:33:31;6.00;;;4.20;;
21769;SDS011;11046;49.558;8.674;2023-02-18T15:36:32;6.57;;;4.20;;
21769;SDS011;11046;49.558;8.674;2023-02-18T15:39:33;6.35;;;4.15;;
21769;SDS011;11046;49.558;8.674;2023-02-18T15:42:38;7.40;;;4.40;;
21769;SDS011;11046;49.558;8.674;2023-02-18T15:45:40;6.47;;;4.07;;
21769;SDS011;11046;49.558;8.674;2023-02-18T15:48:46;8.07;;;4.23;;
21769;SDS011;11046;49.558;8.674;2023-02-18T15:51:55;11.77;;;4.43;;
21769;SDS011;11046;49.558;8.674;2023-02-18T15:55:01;7.27;;;4.20;;
21769;SDS011;11046;49.558;8.674;2023-02-18T15:58:08;6.77;;;4.47;;
21769;SDS011;11046;49.558;8.674;2023-02-18T16:01:24;10.57;;;4.43;;
21769;SDS011;11046;49.558;8.674;2023-02-18T16:04:28;12.77;;;6.13;;
21769;SDS011;11046;49.558;8.674;2023-02-18T16:07:36;7.50;;;5.40;;
21769;SDS011;11046;49.558;8.674;2023-02-18T16:11:10;11.47;;;5.77;;
21769;SDS011;11046;49.558;8.674;2023-02-18T16:17:41;8.73;;;5.90;;
21769;SDS011;11046;49.558;8.674;2023-02-18T16:20:51;11.13;;;6.53;;
21769;SDS011;11046;49.558;8.674;2023-02-18T16:24:02;13.80;;;7.03;;
21769;SDS011;11046;49.558;8.674;2023-02-18T16:27:26;12.63;;;6.20;;
21769;SDS011;11046;49.558;8.674;2023-02-18T16:30:32;9.60;;;6.23;;
21769;SDS011;11046;49.558;8.674;2023-02-18T16:33:35;12.87;;;7.20;;
21769;SDS011;11046;49.558;8.674;2023-02-18T16:36:36;14.70;;;6.10;;
21769;SDS011;11046;49.558;8.674;2023-02-18T16:39:59;9.97;;;6.27;;
21769;SDS011;11046;49.558;8.674;2023-02-18T16:43:01;9.63;;;6.13;;
21769;SDS011;11046;49.558;8.674;2023-02-18T16:46:22;9.63;;;6.40;;
21769;SDS011;11046;49.558;8.674;2023-02-18T16:49:24;10.00;;;6.20;;
21769;SDS011;11046;49.558;8.674;2023-02-18T16:52:26;8.90;;;6.00;;
21769;SDS011;11046;49.558;8.674;2023-02-18T16:55:27;11.70;;;6.50;;
21769;SDS011;11046;49.558;8.674;2023-02-18T16:58:29;8.47;;;6.37;;
21769;SDS011;11046;49.558;8.674;2023-02-18T17:01:34;10.60;;;6.73;;
21769;SDS011;11046;49.558;8.674;2023-02-18T17:04:37;10.40;;;6.20;;
21769;SDS011;11046;49.558;8.674;2023-02-18T17:07:38;9.03;;;6.20;;
21769;SDS011;11046;49.558;8.674;2023-02-18T17:10:38;9.83;;;6.33;;
21769;SDS011;11046;49.558;8.674;2023-02-18T17:13:39;9.77;;;6.53;;
21769;SDS011;11046;49.558;8.674;2023-02-18T17:16:40;12.60;;;6.60;;
21769;SDS011;11046;49.558;8.674;2023-02-18T17:19:40;9.57;;;6.43;;
21769;SDS011;11046;49.558;8.674;2023-02-18T17:22:41;13.27;;;8.30;;
21769;SDS011;11046;49.558;8.674;2023-02-18T17:25:42;12.40;;;7.10;;
21769;SDS011;11046;49.558;8.674;2023-02-18T17:28:44;13.10;;;8.13;;
21769;SDS011;11046;49.558;8.674;2023-02-18T17:31:45;11.90;;;7.30;;
21769;SDS011;11046;49.558;8.674;2023-02-18T17:34:47;16.33;;;9.33;;
21769;SDS011;11046;49.558;8.674;2023-02-18T17:37:48;13.23;;;8.17;;
21769;SDS011;11046;49.558;8.674;2023-02-18T17:40:49;13.23;;;7.40;;
21769;SDS011;11046;49.558;8.674;2023-02-18T17:43:50;11.37;;;7.67;;
21769;SDS011;11046;49.558;8.674;2023-02-18T17:46:52;10.97;;;7.60;;
21769;SDS011;11046;49.558;8.674;2023-02-18T17:49:54;12.33;;;7.80;;
21769;SDS011;11046;49.558;8.674;2023-02-18T17:52:55;15.83;;;7.97;;
21769;SDS011;11046;49.558;8.674;2023-02-18T17:55:57;11.87;;;7.47;;
21769;SDS011;11046;49.558;8.674;2023-02-18T17:58:58;11.63;;;8.13;;
21769;SDS011;11046;49.558;8.674;2023-02-18T18:01:59;18.50;;;8.23;;
21769;SDS011;11046;49.558;8.674;2023-02-18T18:05:00;13.23;;;8.30;;
21769;SDS011;11046;49.558;8.674;2023-02-18T18:08:02;14.20;;;8.37;;
21769;SDS011;11046;49.558;8.674;2023-02-18T18:11:04;12.27;;;8.70;;
21769;SDS011;11046;49.558;8.674;2023-02-18T18:14:05;13.10;;;8.83;;
21769;SDS011;11046;49.558;8.674;2023-02-18T18:17:10;11.80;;;7.60;;
21769;SDS011;11046;49.558;8.674;2023-02-18T18:20:12;11.60;;;7.83;;
21769;SDS011;11046;49.558;8.674;2023-02-18T18:23:14;11.20;;;8.00;;
21769;SDS011;11046;49.558;8.674;2023-02-18T18:26:16;13.30;;;9.17;;
21769;SDS011;11046;49.558;8.674;2023-02-18T18:29:17;13.33;;;8.07;;
21769;SDS011;11046;49.558;8.674;2023-02-18T18:32:18;12.57;;;8.20;;
21769;SDS011;11046;49.558;8.674;2023-02-18T18:38:28;16.53;;;9.77;;
21769;SDS011;11046;49.558;8.674;2023-02-18T18:41:29;14.10;;;9.10;;
21769;SDS011;11046;49.558;8.674;2023-02-18T18:44:29;15.37;;;9.27;;
21769;SDS011;11046;49.558;8.674;2023-02-18T18:47:30;14.73;;;9.20;;
21769;SDS011;11046;49.558;8.674;2023-02-18T18:50:31;14.83;;;9.90;;
21769;SDS011;11046;49.558;8.674;2023-02-18T18:53:33;15.00;;;9.53;;
21769;SDS011;11046;49.558;8.674;2023-02-18T18:56:34;15.03;;;9.23;;
21769;SDS011;11046;49.558;8.674;2023-02-18T18:59:36;20.13;;;11.50;;
21769;SDS011;11046;49.558;8.674;2023-02-18T19:02:37;16.93;;;10.17;;
21769;SDS011;11046;49.558;8.674;2023-02-18T19:05:40;12.90;;;9.17;;
21769;SDS011;11046;49.558;8.674;2023-02-18T19:08:42;19.07;;;10.90;;
21769;SDS011;11046;49.558;8.674;2023-02-18T19:11:44;15.43;;;9.73;;
21769;SDS011;11046;49.558;8.674;2023-02-18T19:14:45;14.63;;;8.87;;
21769;SDS011;11046;49.558;8.674;2023-02-18T19:17:49;16.07;;;10.17;;
21769;SDS011;11046;49.558;8.674;2023-02-18T19:20:52;14.00;;;9.07;;
21769;SDS011;11046;49.558;8.674;2023-02-18T19:23:53;15.60;;;9.40;;
21769;SDS011;11046;49.558;8.674;2023-02-18T19:26:55;14.03;;;8.90;;
21769;SDS011;11046;49.558;8.674;2023-02-18T19:29:57;12.93;;;8.50;;
21769;SDS011;11046;49.558;8.674;2023-02-18T19:32:59;14.47;;;9.23;;
21769;SDS011;11046;49.558;8.674;2023-02-18T19:36:08;16.93;;;10.07;;
21769;SDS011;11046;49.558;8.674;2023-02-18T19:39:10;16.10;;;10.33;;
21769;SDS011;11046;49.558;8.674;2023-02-18T19:42:12;20.40;;;10.67;;
21769;SDS011;11046;49.558;8.674;2023-02-18T19:45:17;17.57;;;11.30;;
21769;SDS011;11046;49.558;8.674;2023-02-18T19:48:19;15.43;;;9.63;;
21769;SDS011;11046;49.558;8.674;2023-02-18T19:51:23;12.37;;;8.13;;
21769;SDS011;11046;49.558;8.674;2023-02-18T19:54:26;14.63;;;8.47;;
21769;SDS011;11046;49.558;8.674;2023-02-18T19:57:27;16.80;;;9.13;;
21769;SDS011;11046;49.558;8.674;2023-02-18T20:00:28;13.67;;;9.10;;
21769;SDS011;11046;49.558;8.674;2023-02-18T20:03:30;16.90;;;9.20;;
21769;SDS011;11046;49.558;8.674;2023-02-18T20:06:31;18.73;;;9.97;;
21769;SDS011;11046;49.558;8.674;2023-02-18T20:09:33;13.97;;;8.93;;
21769;SDS011;11046;49.558;8.674;2023-02-18T20:12:34;15.40;;;9.40;;
21769;SDS011;11046;49.558;8.674;2023-02-18T20:15:39;15.13;;;8.97;;
21769;SDS011;11046;49.558;8.674;2023-02-18T20:18:40;15.93;;;10.00;;
21769;SDS011;11046;49.558;8.674;2023-02-18T20:21:41;12.93;;;8.80;;
21769;SDS011;11046;49.558;8.674;2023-02-18T20:24:41;17.00;;;9.47;;
21769;SDS011;11046;49.558;8.674;2023-02-18T20:27:42;16.43;;;9.70;;
21769;SDS011;11046;49.558;8.674;2023-02-18T20:30:43;17.83;;;10.73;;
21769;SDS011;11046;49.558;8.674;2023-02-18T20:33:44;17.07;;;10.60;;
21769;SDS011;11046;49.558;8.674;2023-02-18T20:36:44;18.37;;;9.67;;
21769;SDS011;11046;49.558;8.674;2023-02-18T20:39:47;16.67;;;10.40;;
21769;SDS011;11046;49.558;8.674;2023-02-18T20:42:47;16.57;;;9.47;;
21769;SDS011;11046;49.558;8.674;2023-02-18T20:45:48;16.77;;;9.33;;
21769;SDS011;11046;49.558;8.674;2023-02-18T20:48:49;15.13;;;9.87;;
21769;SDS011;11046;49.558;8.674;2023-02-18T20:51:50;15.50;;;9.60;;
21769;SDS011;11046;49.558;8.674;2023-02-18T20:54:51;14.03;;;9.37;;
21769;SDS011;11046;49.558;8.674;2023-02-18T20:57:52;15.70;;;9.37;;
21769;SDS011;11046;49.558;8.674;2023-02-18T21:01:05;13.03;;;8.27;;
21769;SDS011;11046;49.558;8.674;2023-02-18T21:04:11;14.00;;;8.67;;
21769;SDS011;11046;49.558;8.674;2023-02-18T21:07:20;13.63;;;8.40;;
21769;SDS011;11046;49.558;8.674;2023-02-18T21:10:21;15.93;;;8.37;;
21769;SDS011;11046;49.558;8.674;2023-02-18T21:13:26;13.57;;;8.93;;
21769;SDS011;11046;49.558;8.674;2023-02-18T21:16:28;13.37;;;8.10;;
21769;SDS011;11046;49.558;8.674;2023-02-18T21:19:39;15.43;;;8.80;;
21769;SDS011;11046;49.558;8.674;2023-02-18T21:22:43;15.20;;;8.33;;
21769;SDS011;11046;49.558;8.674;2023-02-18T21:25:44;14.50;;;9.07;;